sensor_id;sensor_type;location;lat;lon;timestamp;pressure;altitude;pressure_sealevel;temperature;humidity
42859;BME280;28505;56.970;40.998;2023-04-20T00:01:13;100874.09;;;1.73;90.35
42859;BME280;28505;56.970;40.998;2023-04-20T00:06:35;100866.34;;;1.72;90.62
42859;BME280;28505;56.970;40.998;2023-04-20T00:11:57;100867.41;;;1.64;91.37
42859;BME280;28505;56.970;40.998;2023-04-20T00:17:19;100879.84;;;1.70;92.27
42859;BME280;28505;56.970;40.998;2023-04-20T00:22:40;100868.44;;;1.56;92.36
42859;BME280;28505;56.970;40.998;2023-04-20T00:28:02;100863.78;;;1.52;97.38
42859;BME280;28505;56.970;40.998;2023-04-20T00:33:26;100851.56;;;1.44;97.11
42859;BME280;28505;56.970;40.998;2023-04-20T00:38:48;100854.22;;;1.44;95.35
42859;BME280;28505;56.970;40.998;2023-04-20T00:44:10;100850.13;;;1.42;95.30
42859;BME280;28505;56.970;40.998;2023-04-20T01:31:27;100767.75;;;0.97;99.90
42859;BME280;28505;56.970;40.998;2023-04-20T01:48:35;100780.78;;;1.11;100.00
42859;BME280;28505;56.970;40.998;2023-04-20T01:53:58;100806.22;;;1.32;100.00
42859;BME280;28505;56.970;40.998;2023-04-20T01:59:21;100794.13;;;1.36;100.00
42859;BME280;28505;56.970;40.998;2023-04-20T02:04:43;100785.53;;;1.41;100.00
42859;BME280;28505;56.970;40.998;2023-04-20T02:10:06;100780.63;;;1.45;100.00
42859;BME280;28505;56.970;40.998;2023-04-20T02:15:28;100779.38;;;1.47;100.00
42859;BME280;28505;56.970;40.998;2023-04-20T02:20:52;100772.78;;;1.56;100.00
42859;BME280;28505;56.970;40.998;2023-04-20T02:26:14;100789.66;;;1.69;100.00
42859;BME280;28505;56.970;40.998;2023-04-20T02:31:37;100785.34;;;1.74;100.00
42859;BME280;28505;56.970;40.998;2023-04-20T02:37:00;100787.91;;;1.87;100.00
42859;BME280;28505;56.970;40.998;2023-04-20T02:42:22;100764.03;;;1.81;100.00
42859;BME280;28505;56.970;40.998;2023-04-20T02:47:48;100770.25;;;2.00;100.00
42859;BME280;28505;56.970;40.998;2023-04-20T03:05:09;100761.91;;;2.40;100.00
42859;BME280;28505;56.970;40.998;2023-04-20T03:10:37;100744.84;;;2.47;100.00
42859;BME280;28505;56.970;40.998;2023-04-20T03:16:10;100750.25;;;2.77;100.00
42859;BME280;28505;56.970;40.998;2023-04-20T03:21:37;100737.00;;;2.89;100.00
42859;BME280;28505;56.970;40.998;2023-04-20T03:26:59;100729.22;;;3.06;100.00
42859;BME280;28505;56.970;40.998;2023-04-20T03:32:30;100745.72;;;3.45;100.00
42859;BME280;28505;56.970;40.998;2023-04-20T03:37:53;100765.06;;;3.82;100.00
42859;BME280;28505;56.970;40.998;2023-04-20T03:43:16;100766.97;;;4.05;100.00
42859;BME280;28505;56.970;40.998;2023-04-20T03:48:39;100772.22;;;4.35;100.00
42859;BME280;28505;56.970;40.998;2023-04-20T03:54:10;100760.94;;;4.57;100.00
42859;BME280;28505;56.970;40.998;2023-04-20T03:59:32;100765.56;;;4.85;100.00
42859;BME280;28505;56.970;40.998;2023-04-20T04:04:56;100769.00;;;5.09;100.00
42859;BME280;28505;56.970;40.998;2023-04-20T04:10:19;100753.00;;;5.26;100.00
42859;BME280;28505;56.970;40.998;2023-04-20T04:15:43;100752.44;;;5.52;100.00
42859;BME280;28505;56.970;40.998;2023-04-20T04:21:06;100749.97;;;5.79;100.00
42859;BME280;28505;56.970;40.998;2023-04-20T04:26:34;100748.78;;;6.38;100.00
42859;BME280;28505;56.970;40.998;2023-04-20T04:31:57;100739.28;;;6.69;100.00
42859;BME280;28505;56.970;40.998;2023-04-20T04:37:21;100743.50;;;7.31;100.00
42859;BME280;28505;56.970;40.998;2023-04-20T04:42:48;100735.34;;;7.74;99.04
42859;BME280;28505;56.970;40.998;2023-04-20T04:48:11;100754.59;;;8.31;96.68
42859;BME280;28505;56.970;40.998;2023-04-20T04:53:33;100740.63;;;8.76;95.46
42859;BME280;28505;56.970;40.998;2023-04-20T04:58:56;100735.25;;;9.80;94.21
42859;BME280;28505;56.970;40.998;2023-04-20T05:04:18;100735.50;;;11.15;87.52
42859;BME280;28505;56.970;40.998;2023-04-20T05:09:40;100738.19;;;12.33;79.16
42859;BME280;28505;56.970;40.998;2023-04-20T05:15:03;100727.69;;;13.41;71.96
42859;BME280;28505;56.970;40.998;2023-04-20T05:20:25;100721.81;;;14.04;67.54
42859;BME280;28505;56.970;40.998;2023-04-20T05:25:49;100725.53;;;14.09;54.48
42859;BME280;28505;56.970;40.998;2023-04-20T05:31:16;100719.66;;;14.48;54.15
42859;BME280;28505;56.970;40.998;2023-04-20T05:36:39;100720.59;;;14.85;54.73
42859;BME280;28505;56.970;40.998;2023-04-20T05:42:01;100721.88;;;15.15;51.51
42859;BME280;28505;56.970;40.998;2023-04-20T05:47:23;100707.03;;;14.71;50.77
42859;BME280;28505;56.970;40.998;2023-04-20T05:52:46;100703.09;;;14.49;51.80
42859;BME280;28505;56.970;40.998;2023-04-20T05:58:11;100708.06;;;14.75;52.05
42859;BME280;28505;56.970;40.998;2023-04-20T06:03:33;100684.06;;;14.91;51.70
42859;BME280;28505;56.970;40.998;2023-04-20T06:08:56;100683.13;;;14.73;51.72
42859;BME280;28505;56.970;40.998;2023-04-20T06:14:18;100675.53;;;15.70;52.33
42859;BME280;28505;56.970;40.998;2023-04-20T06:19:41;100672.06;;;16.49;50.78
42859;BME280;28505;56.970;40.998;2023-04-20T06:25:03;100684.41;;;17.39;47.28
42859;BME280;28505;56.970;40.998;2023-04-20T06:30:26;100687.09;;;17.91;45.94
42859;BME280;28505;56.970;40.998;2023-04-20T06:35:48;100675.09;;;17.57;46.02
42859;BME280;28505;56.970;40.998;2023-04-20T06:41:12;100688.06;;;17.25;46.72
42859;BME280;28505;56.970;40.998;2023-04-20T06:46:34;100672.09;;;16.58;45.73
42859;BME280;28505;56.970;40.998;2023-04-20T06:51:56;100684.03;;;16.39;44.85
42859;BME280;28505;56.970;40.998;2023-04-20T06:57:19;100677.13;;;16.82;46.08
42859;BME280;28505;56.970;40.998;2023-04-20T07:02:46;100664.34;;;17.52;47.15
42859;BME280;28505;56.970;40.998;2023-04-20T07:08:08;100664.97;;;18.31;46.36
42859;BME280;28505;56.970;40.998;2023-04-20T07:13:30;100666.56;;;17.85;43.79
42859;BME280;28505;56.970;40.998;2023-04-20T07:18:54;100662.75;;;17.16;43.48
42859;BME280;28505;56.970;40.998;2023-04-20T07:24:16;100658.75;;;17.22;42.27
42859;BME280;28505;56.970;40.998;2023-04-20T07:29:38;100645.78;;;17.37;43.19
42859;BME280;28505;56.970;40.998;2023-04-20T07:35:00;100660.03;;;17.25;43.32
42859;BME280;28505;56.970;40.998;2023-04-20T07:40:23;100648.16;;;17.47;44.36
42859;BME280;28505;56.970;40.998;2023-04-20T07:45:45;100630.69;;;17.48;43.97
42859;BME280;28505;56.970;40.998;2023-04-20T07:51:08;100646.00;;;17.96;44.18
42859;BME280;28505;56.970;40.998;2023-04-20T07:56:30;100639.44;;;18.27;43.34
42859;BME280;28505;56.970;40.998;2023-04-20T08:01:58;100629.28;;;18.65;42.91
42859;BME280;28505;56.970;40.998;2023-04-20T08:07:21;100629.63;;;18.64;41.07
42859;BME280;28505;56.970;40.998;2023-04-20T08:12:44;100639.78;;;17.78;40.50
42859;BME280;28505;56.970;40.998;2023-04-20T08:18:10;100632.91;;;16.76;41.50
42859;BME280;28505;56.970;40.998;2023-04-20T08:23:33;100637.09;;;16.25;42.11
42859;BME280;28505;56.970;40.998;2023-04-20T08:28:55;100637.16;;;16.03;42.43
42859;BME280;28505;56.970;40.998;2023-04-20T08:34:17;100628.88;;;15.85;42.55
42859;BME280;28505;56.970;40.998;2023-04-20T08:39:39;100629.34;;;15.79;42.46
42859;BME280;28505;56.970;40.998;2023-04-20T08:45:01;100628.06;;;15.76;42.62
42859;BME280;28505;56.970;40.998;2023-04-20T08:50:25;100612.38;;;15.73;42.22
42859;BME280;28505;56.970;40.998;2023-04-20T08:55:49;100610.13;;;15.75;42.15
42859;BME280;28505;56.970;40.998;2023-04-20T09:01:12;100617.72;;;15.87;42.45
42859;BME280;28505;56.970;40.998;2023-04-20T09:06:43;100625.50;;;16.11;42.35
42859;BME280;28505;56.970;40.998;2023-04-20T09:12:06;100614.16;;;16.09;42.30
42859;BME280;28505;56.970;40.998;2023-04-20T09:17:35;100620.56;;;16.13;42.40
42859;BME280;28505;56.970;40.998;2023-04-20T09:23:10;100613.50;;;16.12;42.10
42859;BME280;28505;56.970;40.998;2023-04-20T09:28:37;100604.03;;;16.01;41.90
42859;BME280;28505;56.970;40.998;2023-04-20T09:34:02;100613.44;;;15.95;41.34
42859;BME280;28505;56.970;40.998;2023-04-20T09:39:28;100611.25;;;15.74;40.30
42859;BME280;28505;56.970;40.998;2023-04-20T09:44:51;100610.09;;;15.66;40.14
42859;BME280;28505;56.970;40.998;2023-04-20T09:50:13;100602.06;;;15.39;40.39
42859;BME280;28505;56.970;40.998;2023-04-20T09:55:46;100627.69;;;15.24;41.08
42859;BME280;28505;56.970;40.998;2023-04-20T10:01:09;100630.50;;;15.19;41.85
42859;BME280;28505;56.970;40.998;2023-04-20T10:06:35;100620.25;;;15.16;42.01
42859;BME280;28505;56.970;40.998;2023-04-20T10:12:08;100624.09;;;15.15;43.77
42859;BME280;28505;56.970;40.998;2023-04-20T10:17:32;100614.97;;;15.11;45.36
42859;BME280;28505;56.970;40.998;2023-04-20T10:23:07;100604.94;;;15.42;46.30
42859;BME280;28505;56.970;40.998;2023-04-20T10:28:37;100591.25;;;15.70;45.13
42859;BME280;28505;56.970;40.998;2023-04-20T10:34:02;100588.03;;;15.68;43.90
42859;BME280;28505;56.970;40.998;2023-04-20T10:39:23;100576.94;;;15.96;43.90
42859;BME280;28505;56.970;40.998;2023-04-20T10:44:50;100582.06;;;16.37;43.51
42859;BME280;28505;56.970;40.998;2023-04-20T10:50:14;100576.31;;;16.47;42.76
42859;BME280;28505;56.970;40.998;2023-04-20T10:55:36;100548.66;;;16.71;42.34
42859;BME280;28505;56.970;40.998;2023-04-20T11:01:04;100555.06;;;16.58;41.14
42859;BME280;28505;56.970;40.998;2023-04-20T11:06:27;100548.59;;;16.36;40.05
42859;BME280;28505;56.970;40.998;2023-04-20T11:12:04;100539.16;;;16.34;40.05
42859;BME280;28505;56.970;40.998;2023-04-20T11:17:36;100529.41;;;16.33;40.55
42859;BME280;28505;56.970;40.998;2023-04-20T11:23:01;100513.22;;;16.19;39.85
42859;BME280;28505;56.970;40.998;2023-04-20T11:28:25;100503.78;;;16.25;39.51
42859;BME280;28505;56.970;40.998;2023-04-20T11:33:55;100488.72;;;16.10;39.14
42859;BME280;28505;56.970;40.998;2023-04-20T11:39:26;100460.53;;;16.15;39.38
42859;BME280;28505;56.970;40.998;2023-04-20T11:44:51;100458.94;;;15.97;38.29
42859;BME280;28505;56.970;40.998;2023-04-20T11:50:13;100465.03;;;16.02;35.76
42859;BME280;28505;56.970;40.998;2023-04-20T11:55:36;100455.09;;;16.15;34.68
42859;BME280;28505;56.970;40.998;2023-04-20T12:00:58;100429.00;;;16.05;36.41
42859;BME280;28505;56.970;40.998;2023-04-20T12:06:21;100422.94;;;16.00;36.84
42859;BME280;28505;56.970;40.998;2023-04-20T12:11:43;100428.72;;;16.24;37.50
42859;BME280;28505;56.970;40.998;2023-04-20T12:17:05;100411.91;;;16.39;37.08
42859;BME280;28505;56.970;40.998;2023-04-20T12:22:27;100401.97;;;16.44;37.40
42859;BME280;28505;56.970;40.998;2023-04-20T12:27:49;100410.47;;;16.33;36.67
42859;BME280;28505;56.970;40.998;2023-04-20T12:33:11;100394.00;;;16.12;35.57
42859;BME280;28505;56.970;40.998;2023-04-20T12:38:36;100387.28;;;15.93;36.03
42859;BME280;28505;56.970;40.998;2023-04-20T12:44:00;100392.34;;;15.85;36.59
42859;BME280;28505;56.970;40.998;2023-04-20T12:49:27;100378.63;;;15.90;36.89
42859;BME280;28505;56.970;40.998;2023-04-20T12:54:51;100384.22;;;16.11;36.93
42859;BME280;28505;56.970;40.998;2023-04-20T13:00:14;100375.59;;;16.09;36.25
42859;BME280;28505;56.970;40.998;2023-04-20T13:05:37;100370.28;;;15.96;36.70
42859;BME280;28505;56.970;40.998;2023-04-20T13:10:59;100361.66;;;15.76;36.60
42859;BME280;28505;56.970;40.998;2023-04-20T13:16:22;100369.16;;;15.71;36.52
42859;BME280;28505;56.970;40.998;2023-04-20T13:21:44;100361.81;;;15.71;36.68
42859;BME280;28505;56.970;40.998;2023-04-20T13:27:08;100357.50;;;15.70;37.21
42859;BME280;28505;56.970;40.998;2023-04-20T13:32:31;100342.09;;;15.57;37.27
42859;BME280;28505;56.970;40.998;2023-04-20T13:37:55;100342.84;;;15.40;36.91
42859;BME280;28505;56.970;40.998;2023-04-20T13:43:17;100357.81;;;15.20;37.29
42859;BME280;28505;56.970;40.998;2023-04-20T13:48:42;100322.66;;;15.15;36.80
42859;BME280;28505;56.970;40.998;2023-04-20T13:54:04;100345.03;;;15.20;37.53
42859;BME280;28505;56.970;40.998;2023-04-20T13:59:28;100331.88;;;15.05;37.26
42859;BME280;28505;56.970;40.998;2023-04-20T14:04:50;100321.47;;;14.98;36.84
42859;BME280;28505;56.970;40.998;2023-04-20T14:10:12;100328.84;;;15.07;36.96
42859;BME280;28505;56.970;40.998;2023-04-20T14:15:35;100317.53;;;15.13;37.54
42859;BME280;28505;56.970;40.998;2023-04-20T14:20:58;100295.59;;;14.92;36.84
42859;BME280;28505;56.970;40.998;2023-04-20T14:26:20;100312.84;;;14.96;37.25
42859;BME280;28505;56.970;40.998;2023-04-20T14:31:43;100286.09;;;14.72;37.37
42859;BME280;28505;56.970;40.998;2023-04-20T14:37:05;100320.31;;;14.91;37.54
42859;BME280;28505;56.970;40.998;2023-04-20T14:42:28;100311.97;;;14.79;37.65
42859;BME280;28505;56.970;40.998;2023-04-20T14:47:52;100320.06;;;14.70;37.94
42859;BME280;28505;56.970;40.998;2023-04-20T14:53:16;100275.06;;;14.46;38.20
42859;BME280;28505;56.970;40.998;2023-04-20T14:58:39;100272.19;;;14.43;38.38
42859;BME280;28505;56.970;40.998;2023-04-20T15:04:04;100298.34;;;14.39;38.22
42859;BME280;28505;56.970;40.998;2023-04-20T15:09:27;100278.69;;;14.11;38.54
42859;BME280;28505;56.970;40.998;2023-04-20T15:14:55;100277.09;;;13.87;38.81
42859;BME280;28505;56.970;40.998;2023-04-20T15:20:24;100297.88;;;13.78;39.06
42859;BME280;28505;56.970;40.998;2023-04-20T15:25:47;100280.22;;;13.44;39.74
42859;BME280;28505;56.970;40.998;2023-04-20T15:31:10;100272.81;;;13.22;40.02
42859;BME280;28505;56.970;40.998;2023-04-20T15:36:32;100268.63;;;13.02;40.19
42859;BME280;28505;56.970;40.998;2023-04-20T15:41:55;100264.00;;;12.89;40.57
42859;BME280;28505;56.970;40.998;2023-04-20T15:47:27;100257.91;;;12.70;40.88
42859;BME280;28505;56.970;40.998;2023-04-20T15:53:01;100291.81;;;12.62;41.17
42859;BME280;28505;56.970;40.998;2023-04-20T15:58:25;100280.59;;;12.41;41.74
42859;BME280;28505;56.970;40.998;2023-04-20T16:03:48;100296.41;;;12.34;41.69
42859;BME280;28505;56.970;40.998;2023-04-20T16:09:11;100285.47;;;12.06;42.39
42859;BME280;28505;56.970;40.998;2023-04-20T16:14:34;100295.03;;;11.80;42.88
42859;BME280;28505;56.970;40.998;2023-04-20T16:20:03;100274.84;;;11.39;43.57
42859;BME280;28505;56.970;40.998;2023-04-20T16:25:30;100276.03;;;11.09;44.07
42859;BME280;28505;56.970;40.998;2023-04-20T16:30:55;100296.75;;;10.90;44.20
42859;BME280;28505;56.970;40.998;2023-04-20T16:36:18;100289.34;;;10.76;44.73
42859;BME280;28505;56.970;40.998;2023-04-20T16:41:41;100301.72;;;10.53;45.16
42859;BME280;28505;56.970;40.998;2023-04-20T16:47:04;100291.16;;;10.28;45.41
42859;BME280;28505;56.970;40.998;2023-04-20T16:52:28;100274.97;;;9.94;46.01
42859;BME280;28505;56.970;40.998;2023-04-20T16:57:50;100292.81;;;9.84;46.89
42859;BME280;28505;56.970;40.998;2023-04-20T17:03:20;100274.44;;;9.52;47.93
42859;BME280;28505;56.970;40.998;2023-04-20T17:08:43;100283.16;;;9.34;48.25
42859;BME280;28505;56.970;40.998;2023-04-20T17:14:07;100307.66;;;9.32;48.36
42859;BME280;28505;56.970;40.998;2023-04-20T17:19:32;100288.88;;;9.17;48.72
42859;BME280;28505;56.970;40.998;2023-04-20T17:24:55;100303.41;;;9.16;48.76
42859;BME280;28505;56.970;40.998;2023-04-20T17:30:17;100292.13;;;9.09;48.26
42859;BME280;28505;56.970;40.998;2023-04-20T17:35:40;100277.91;;;8.98;48.28
42859;BME280;28505;56.970;40.998;2023-04-20T17:41:03;100281.97;;;8.85;48.44
42859;BME280;28505;56.970;40.998;2023-04-20T17:46:25;100313.44;;;8.90;48.53
42859;BME280;28505;56.970;40.998;2023-04-20T17:51:48;100268.34;;;8.56;48.29
42859;BME280;28505;56.970;40.998;2023-04-20T17:57:10;100272.94;;;8.46;48.60
42859;BME280;28505;56.970;40.998;2023-04-20T18:02:34;100291.19;;;8.43;48.54
42859;BME280;28505;56.970;40.998;2023-04-20T18:07:56;100288.50;;;8.23;49.16
42859;BME280;28505;56.970;40.998;2023-04-20T18:13:18;100305.72;;;8.22;49.16
42859;BME280;28505;56.970;40.998;2023-04-20T18:18:42;100270.25;;;7.84;49.92
42859;BME280;28505;56.970;40.998;2023-04-20T18:24:04;100304.88;;;7.91;50.12
42859;BME280;28505;56.970;40.998;2023-04-20T18:29:26;100307.28;;;7.72;50.45
42859;BME280;28505;56.970;40.998;2023-04-20T18:34:49;100272.84;;;7.38;50.77
42859;BME280;28505;56.970;40.998;2023-04-20T18:40:12;100280.03;;;7.22;51.25
42859;BME280;28505;56.970;40.998;2023-04-20T18:45:42;100266.31;;;7.03;51.30
42859;BME280;28505;56.970;40.998;2023-04-20T18:52:04;100262.97;;;6.86;51.60
42859;BME280;28505;56.970;40.998;2023-04-20T18:57:26;100264.03;;;6.80;51.58
42859;BME280;28505;56.970;40.998;2023-04-20T19:02:49;100265.31;;;6.67;51.96
42859;BME280;28505;56.970;40.998;2023-04-20T19:08:12;100272.75;;;6.55;52.42
42859;BME280;28505;56.970;40.998;2023-04-20T19:13:37;100293.94;;;6.62;52.90
42859;BME280;28505;56.970;40.998;2023-04-20T19:19:06;100266.94;;;6.31;53.04
42859;BME280;28505;56.970;40.998;2023-04-20T19:24:29;100267.38;;;6.18;53.36
42859;BME280;28505;56.970;40.998;2023-04-20T19:29:55;100260.56;;;6.00;53.80
42859;BME280;28505;56.970;40.998;2023-04-20T19:35:17;100261.59;;;5.94;53.75
42859;BME280;28505;56.970;40.998;2023-04-20T19:40:40;100258.53;;;5.85;53.96
42859;BME280;28505;56.970;40.998;2023-04-20T19:46:27;100291.59;;;6.01;54.44
42859;BME280;28505;56.970;40.998;2023-04-20T19:52:01;100288.50;;;5.87;54.66
42859;BME280;28505;56.970;40.998;2023-04-20T19:57:23;100279.59;;;5.76;54.67
42859;BME280;28505;56.970;40.998;2023-04-20T20:02:45;100275.47;;;5.63;55.06
42859;BME280;28505;56.970;40.998;2023-04-20T20:08:07;100233.41;;;5.32;55.23
42859;BME280;28505;56.970;40.998;2023-04-20T20:13:30;100278.53;;;5.50;55.69
42859;BME280;28505;56.970;40.998;2023-04-20T20:18:51;100270.94;;;5.42;55.81
42859;BME280;28505;56.970;40.998;2023-04-20T20:24:13;100231.09;;;5.13;55.75
42859;BME280;28505;56.970;40.998;2023-04-20T20:29:35;100272.88;;;5.47;56.14
42859;BME280;28505;56.970;40.998;2023-04-20T20:34:58;100260.22;;;5.37;56.04
42859;BME280;28505;56.970;40.998;2023-04-20T20:40:23;100279.31;;;5.24;56.69
42859;BME280;28505;56.970;40.998;2023-04-20T20:45:45;100230.41;;;4.79;57.37
42859;BME280;28505;56.970;40.998;2023-04-20T20:51:07;100228.38;;;4.64;57.77
42859;BME280;28505;56.970;40.998;2023-04-20T20:56:29;100275.75;;;4.74;58.21
42859;BME280;28505;56.970;40.998;2023-04-20T21:01:52;100241.69;;;4.42;58.90
42859;BME280;28505;56.970;40.998;2023-04-20T21:07:17;100259.47;;;4.37;59.63
42859;BME280;28505;56.970;40.998;2023-04-20T21:12:39;100232.16;;;4.13;60.03
42859;BME280;28505;56.970;40.998;2023-04-20T21:18:01;100233.13;;;4.07;60.43
42859;BME280;28505;56.970;40.998;2023-04-20T21:23:23;100234.75;;;3.91;60.96
42859;BME280;28505;56.970;40.998;2023-04-20T21:28:45;100221.00;;;3.82;60.24
42859;BME280;28505;56.970;40.998;2023-04-20T21:34:07;100223.50;;;3.72;59.99
42859;BME280;28505;56.970;40.998;2023-04-20T21:39:29;100215.09;;;3.63;60.32
42859;BME280;28505;56.970;40.998;2023-04-20T21:44:51;100221.00;;;3.65;60.06
42859;BME280;28505;56.970;40.998;2023-04-20T21:50:24;100233.66;;;3.58;60.66
42859;BME280;28505;56.970;40.998;2023-04-20T21:55:49;100231.59;;;3.32;61.47
42859;BME280;28505;56.970;40.998;2023-04-20T22:01:11;100233.81;;;3.23;62.18
42859;BME280;28505;56.970;40.998;2023-04-20T22:06:33;100227.50;;;3.12;62.26
42859;BME280;28505;56.970;40.998;2023-04-20T22:11:55;100202.69;;;2.83;63.15
42859;BME280;28505;56.970;40.998;2023-04-20T22:17:18;100231.84;;;2.90;63.30
42859;BME280;28505;56.970;40.998;2023-04-20T22:22:40;100200.31;;;2.58;63.53
42859;BME280;28505;56.970;40.998;2023-04-20T22:28:02;100210.88;;;2.53;63.70
42859;BME280;28505;56.970;40.998;2023-04-20T22:33:23;100208.78;;;2.43;64.24
42859;BME280;28505;56.970;40.998;2023-04-20T22:38:45;100212.03;;;2.45;63.91
42859;BME280;28505;56.970;40.998;2023-04-20T22:44:07;100209.13;;;2.47;64.35
42859;BME280;28505;56.970;40.998;2023-04-20T22:49:29;100211.78;;;2.47;64.44
42859;BME280;28505;56.970;40.998;2023-04-20T22:54:52;100192.94;;;2.37;64.89
42859;BME280;28505;56.970;40.998;2023-04-20T23:00:14;100175.72;;;2.27;64.92
42859;BME280;28505;56.970;40.998;2023-04-20T23:05:37;100161.75;;;2.20;65.98
42859;BME280;28505;56.970;40.998;2023-04-20T23:10:59;100166.47;;;2.18;66.41
42859;BME280;28505;56.970;40.998;2023-04-20T23:16:21;100198.03;;;2.50;66.41
42859;BME280;28505;56.970;40.998;2023-04-20T23:21:44;100160.44;;;2.34;67.04
42859;BME280;28505;56.970;40.998;2023-04-20T23:27:06;100186.56;;;2.49;66.31
42859;BME280;28505;56.970;40.998;2023-04-20T23:32:28;100190.03;;;2.38;66.56
42859;BME280;28505;56.970;40.998;2023-04-20T23:37:51;100175.16;;;2.14;66.93
42859;BME280;28505;56.970;40.998;2023-04-20T23:43:15;100188.69;;;2.12;67.14
42859;BME280;28505;56.970;40.998;2023-04-20T23:48:37;100171.66;;;1.90;67.39
42859;BME280;28505;56.970;40.998;2023-04-20T23:54:02;100167.31;;;1.83;67.73
42859;BME280;28505;56.970;40.998;2023-04-20T23:59:32;100188.47;;;1.90;67.94
